sensor_id;sensor_type;location;lat;lon;timestamp;temperature;humidity
10903;DHT22;5504;47.312;11.060;2023-05-27T00:01:33;16.00;84.90
10903;DHT22;5504;47.312;11.060;2023-05-27T00:03:58;15.90;84.60
10903;DHT22;5504;47.312;11.060;2023-05-27T00:06:24;15.90;85.00
10903;DHT22;5504;47.312;11.060;2023-05-27T00:08:50;16.00;85.30
10903;DHT22;5504;47.312;11.060;2023-05-27T00:11:15;16.00;85.10
10903;DHT22;5504;47.312;11.060;2023-05-27T00:13:41;15.90;85.10
10903;DHT22;5504;47.312;11.060;2023-05-27T00:16:07;15.80;84.90
10903;DHT22;5504;47.312;11.060;2023-05-27T00:18:33;15.80;85.40
10903;DHT22;5504;47.312;11.060;2023-05-27T00:20:59;15.80;85.40
10903;DHT22;5504;47.312;11.060;2023-05-27T00:23:25;15.80;85.30
10903;DHT22;5504;47.312;11.060;2023-05-27T00:25:50;15.80;85.30
10903;DHT22;5504;47.312;11.060;2023-05-27T00:28:16;15.60;85.00
10903;DHT22;5504;47.312;11.060;2023-05-27T00:30:42;15.60;85.50
10903;DHT22;5504;47.312;11.060;2023-05-27T00:33:07;15.60;85.50
10903;DHT22;5504;47.312;11.060;2023-05-27T00:35:33;15.60;85.80
10903;DHT22;5504;47.312;11.060;2023-05-27T00:37:59;15.60;86.00
10903;DHT22;5504;47.312;11.060;2023-05-27T00:40:26;15.50;86.30
10903;DHT22;5504;47.312;11.060;2023-05-27T00:42:52;15.50;85.90
10903;DHT22;5504;47.312;11.060;2023-05-27T00:45:17;15.50;85.90
10903;DHT22;5504;47.312;11.060;2023-05-27T00:47:43;15.40;86.40
10903;DHT22;5504;47.312;11.060;2023-05-27T00:50:09;15.30;86.50
10903;DHT22;5504;47.312;11.060;2023-05-27T00:52:35;15.40;86.50
10903;DHT22;5504;47.312;11.060;2023-05-27T00:55:01;15.40;86.60
10903;DHT22;5504;47.312;11.060;2023-05-27T00:57:27;15.40;86.00
10903;DHT22;5504;47.312;11.060;2023-05-27T00:59:53;15.40;87.00
10903;DHT22;5504;47.312;11.060;2023-05-27T01:02:19;15.30;86.20
10903;DHT22;5504;47.312;11.060;2023-05-27T01:04:46;15.20;86.40
10903;DHT22;5504;47.312;11.060;2023-05-27T01:10:00;15.00;87.10
10903;DHT22;5504;47.312;11.060;2023-05-27T01:12:53;15.00;87.60
10903;DHT22;5504;47.312;11.060;2023-05-27T01:15:21;14.90;87.60
10903;DHT22;5504;47.312;11.060;2023-05-27T01:17:47;15.00;87.90
10903;DHT22;5504;47.312;11.060;2023-05-27T01:20:14;15.10;87.80
10903;DHT22;5504;47.312;11.060;2023-05-27T01:22:42;15.00;87.40
10903;DHT22;5504;47.312;11.060;2023-05-27T01:25:08;15.00;88.20
10903;DHT22;5504;47.312;11.060;2023-05-27T01:27:35;15.00;87.90
10903;DHT22;5504;47.312;11.060;2023-05-27T01:30:01;15.00;87.80
10903;DHT22;5504;47.312;11.060;2023-05-27T01:32:31;15.00;87.20
10903;DHT22;5504;47.312;11.060;2023-05-27T01:35:30;14.90;87.80
10903;DHT22;5504;47.312;11.060;2023-05-27T01:37:56;14.90;88.60
10903;DHT22;5504;47.312;11.060;2023-05-27T01:40:24;14.80;88.50
10903;DHT22;5504;47.312;11.060;2023-05-27T01:42:50;14.80;88.60
10903;DHT22;5504;47.312;11.060;2023-05-27T01:45:16;14.80;88.50
10903;DHT22;5504;47.312;11.060;2023-05-27T01:47:45;14.80;89.20
10903;DHT22;5504;47.312;11.060;2023-05-27T01:50:10;14.90;89.60
10903;DHT22;5504;47.312;11.060;2023-05-27T01:52:36;14.90;89.50
10903;DHT22;5504;47.312;11.060;2023-05-27T01:55:02;15.00;89.50
10903;DHT22;5504;47.312;11.060;2023-05-27T01:57:30;14.90;89.40
10903;DHT22;5504;47.312;11.060;2023-05-27T01:59:56;14.90;89.10
10903;DHT22;5504;47.312;11.060;2023-05-27T02:02:22;14.80;89.50
10903;DHT22;5504;47.312;11.060;2023-05-27T02:04:47;14.90;90.10
10903;DHT22;5504;47.312;11.060;2023-05-27T02:07:13;14.90;90.10
10903;DHT22;5504;47.312;11.060;2023-05-27T02:09:39;14.90;90.50
10903;DHT22;5504;47.312;11.060;2023-05-27T02:12:05;14.80;90.10
10903;DHT22;5504;47.312;11.060;2023-05-27T02:14:31;14.80;90.10
10903;DHT22;5504;47.312;11.060;2023-05-27T02:16:58;14.90;90.30
10903;DHT22;5504;47.312;11.060;2023-05-27T02:19:23;15.00;90.40
10903;DHT22;5504;47.312;11.060;2023-05-27T02:21:50;15.20;90.20
10903;DHT22;5504;47.312;11.060;2023-05-27T02:24:16;15.30;89.80
10903;DHT22;5504;47.312;11.060;2023-05-27T02:26:41;15.40;89.60
10903;DHT22;5504;47.312;11.060;2023-05-27T02:29:07;15.30;90.00
10903;DHT22;5504;47.312;11.060;2023-05-27T02:31:33;15.30;90.10
10903;DHT22;5504;47.312;11.060;2023-05-27T02:33:58;15.30;90.40
10903;DHT22;5504;47.312;11.060;2023-05-27T02:36:24;15.30;90.50
10903;DHT22;5504;47.312;11.060;2023-05-27T02:38:50;15.20;90.20
10903;DHT22;5504;47.312;11.060;2023-05-27T02:41:16;15.20;90.40
10903;DHT22;5504;47.312;11.060;2023-05-27T02:43:42;15.30;90.60
10903;DHT22;5504;47.312;11.060;2023-05-27T02:46:07;15.30;90.60
10903;DHT22;5504;47.312;11.060;2023-05-27T02:48:33;15.30;90.40
10903;DHT22;5504;47.312;11.060;2023-05-27T02:50:59;15.20;90.10
10903;DHT22;5504;47.312;11.060;2023-05-27T02:53:24;15.20;90.30
10903;DHT22;5504;47.312;11.060;2023-05-27T02:55:50;15.30;90.80
10903;DHT22;5504;47.312;11.060;2023-05-27T02:58:16;15.50;90.70
10903;DHT22;5504;47.312;11.060;2023-05-27T03:00:42;15.50;90.50
10903;DHT22;5504;47.312;11.060;2023-05-27T03:03:08;15.50;90.70
10903;DHT22;5504;47.312;11.060;2023-05-27T03:05:35;15.40;90.50
10903;DHT22;5504;47.312;11.060;2023-05-27T03:08:01;15.30;90.10
10903;DHT22;5504;47.312;11.060;2023-05-27T03:10:27;15.40;90.50
10903;DHT22;5504;47.312;11.060;2023-05-27T03:12:56;15.50;90.70
10903;DHT22;5504;47.312;11.060;2023-05-27T03:15:21;15.60;90.60
10903;DHT22;5504;47.312;11.060;2023-05-27T03:17:47;15.60;90.60
10903;DHT22;5504;47.312;11.060;2023-05-27T03:20:13;15.50;90.60
10903;DHT22;5504;47.312;11.060;2023-05-27T03:22:39;15.60;91.30
10903;DHT22;5504;47.312;11.060;2023-05-27T03:25:05;15.60;91.10
10903;DHT22;5504;47.312;11.060;2023-05-27T03:27:31;15.60;91.10
10903;DHT22;5504;47.312;11.060;2023-05-27T03:29:57;15.60;91.10
10903;DHT22;5504;47.312;11.060;2023-05-27T03:32:23;15.70;91.10
10903;DHT22;5504;47.312;11.060;2023-05-27T03:34:48;15.60;90.90
10903;DHT22;5504;47.312;11.060;2023-05-27T03:37:14;15.60;91.10
10903;DHT22;5504;47.312;11.060;2023-05-27T03:39:40;15.60;91.10
10903;DHT22;5504;47.312;11.060;2023-05-27T03:42:06;15.50;91.00
10903;DHT22;5504;47.312;11.060;2023-05-27T03:44:32;15.50;91.20
10903;DHT22;5504;47.312;11.060;2023-05-27T03:46:58;15.30;91.30
10903;DHT22;5504;47.312;11.060;2023-05-27T03:49:23;15.40;91.40
10903;DHT22;5504;47.312;11.060;2023-05-27T03:51:49;15.40;91.20
10903;DHT22;5504;47.312;11.060;2023-05-27T03:54:15;15.50;91.30
10903;DHT22;5504;47.312;11.060;2023-05-27T03:56:40;15.50;91.40
10903;DHT22;5504;47.312;11.060;2023-05-27T03:59:06;15.50;91.40
10903;DHT22;5504;47.312;11.060;2023-05-27T04:01:32;15.60;91.50
10903;DHT22;5504;47.312;11.060;2023-05-27T04:03:58;15.50;91.50
10903;DHT22;5504;47.312;11.060;2023-05-27T04:06:24;15.50;91.60
10903;DHT22;5504;47.312;11.060;2023-05-27T04:08:50;15.50;91.60
10903;DHT22;5504;47.312;11.060;2023-05-27T04:11:16;15.40;91.60
10903;DHT22;5504;47.312;11.060;2023-05-27T04:13:41;15.50;91.70
10903;DHT22;5504;47.312;11.060;2023-05-27T04:16:07;15.50;91.80
10903;DHT22;5504;47.312;11.060;2023-05-27T04:18:34;15.50;91.80
10903;DHT22;5504;47.312;11.060;2023-05-27T04:21:01;15.60;91.60
10903;DHT22;5504;47.312;11.060;2023-05-27T04:23:26;15.50;91.50
10903;DHT22;5504;47.312;11.060;2023-05-27T04:25:52;15.40;91.40
10903;DHT22;5504;47.312;11.060;2023-05-27T04:28:18;15.40;91.50
10903;DHT22;5504;47.312;11.060;2023-05-27T04:30:44;15.40;91.70
10903;DHT22;5504;47.312;11.060;2023-05-27T04:33:15;15.50;91.90
10903;DHT22;5504;47.312;11.060;2023-05-27T04:35:42;15.70;92.00
10903;DHT22;5504;47.312;11.060;2023-05-27T04:38:12;15.70;92.00
10903;DHT22;5504;47.312;11.060;2023-05-27T04:40:44;15.80;92.10
10903;DHT22;5504;47.312;11.060;2023-05-27T04:43:11;15.80;91.90
10903;DHT22;5504;47.312;11.060;2023-05-27T04:45:39;15.80;91.90
10903;DHT22;5504;47.312;11.060;2023-05-27T04:48:05;15.90;92.10
10903;DHT22;5504;47.312;11.060;2023-05-27T04:50:31;16.00;92.10
10903;DHT22;5504;47.312;11.060;2023-05-27T04:52:57;16.10;91.60
10903;DHT22;5504;47.312;11.060;2023-05-27T04:55:23;16.20;91.60
10903;DHT22;5504;47.312;11.060;2023-05-27T04:57:49;16.30;91.20
10903;DHT22;5504;47.312;11.060;2023-05-27T05:00:15;16.30;91.20
10903;DHT22;5504;47.312;11.060;2023-05-27T05:02:48;16.40;91.40
10903;DHT22;5504;47.312;11.060;2023-05-27T05:05:14;16.40;91.70
10903;DHT22;5504;47.312;11.060;2023-05-27T05:07:41;16.50;91.70
10903;DHT22;5504;47.312;11.060;2023-05-27T05:10:13;16.60;91.70
10903;DHT22;5504;47.312;11.060;2023-05-27T05:12:38;16.70;92.10
10903;DHT22;5504;47.312;11.060;2023-05-27T05:15:06;16.90;91.90
10903;DHT22;5504;47.312;11.060;2023-05-27T05:17:32;17.10;91.50
10903;DHT22;5504;47.312;11.060;2023-05-27T05:19:58;17.40;91.40
10903;DHT22;5504;47.312;11.060;2023-05-27T05:22:23;17.60;91.10
10903;DHT22;5504;47.312;11.060;2023-05-27T05:24:51;17.80;90.70
10903;DHT22;5504;47.312;11.060;2023-05-27T05:27:17;17.90;89.80
10903;DHT22;5504;47.312;11.060;2023-05-27T05:29:43;17.90;88.40
10903;DHT22;5504;47.312;11.060;2023-05-27T05:32:09;18.10;85.60
10903;DHT22;5504;47.312;11.060;2023-05-27T05:34:38;18.20;86.00
10903;DHT22;5504;47.312;11.060;2023-05-27T05:37:05;18.00;83.60
10903;DHT22;5504;47.312;11.060;2023-05-27T05:39:31;18.10;84.80
10903;DHT22;5504;47.312;11.060;2023-05-27T05:41:56;18.00;82.70
10903;DHT22;5504;47.312;11.060;2023-05-27T05:44:23;18.20;83.50
10903;DHT22;5504;47.312;11.060;2023-05-27T05:46:49;18.40;82.40
10903;DHT22;5504;47.312;11.060;2023-05-27T05:49:15;18.20;81.90
10903;DHT22;5504;47.312;11.060;2023-05-27T05:51:41;18.20;81.30
10903;DHT22;5504;47.312;11.060;2023-05-27T05:54:07;18.20;81.80
10903;DHT22;5504;47.312;11.060;2023-05-27T05:56:33;18.50;81.50
10903;DHT22;5504;47.312;11.060;2023-05-27T05:58:59;18.00;81.20
10903;DHT22;5504;47.312;11.060;2023-05-27T06:01:25;18.40;81.60
10903;DHT22;5504;47.312;11.060;2023-05-27T06:03:53;18.90;81.60
10903;DHT22;5504;47.312;11.060;2023-05-27T06:06:18;19.50;81.40
10903;DHT22;5504;47.312;11.060;2023-05-27T06:08:44;19.00;77.10
10903;DHT22;5504;47.312;11.060;2023-05-27T06:11:11;19.20;78.00
10903;DHT22;5504;47.312;11.060;2023-05-27T06:13:37;19.90;80.40
10903;DHT22;5504;47.312;11.060;2023-05-27T06:16:02;20.20;77.30
10903;DHT22;5504;47.312;11.060;2023-05-27T06:18:28;20.40;76.60
10903;DHT22;5504;47.312;11.060;2023-05-27T06:20:54;20.80;77.10
10903;DHT22;5504;47.312;11.060;2023-05-27T06:23:19;20.70;73.70
10903;DHT22;5504;47.312;11.060;2023-05-27T06:25:45;20.20;71.80
10903;DHT22;5504;47.312;11.060;2023-05-27T06:28:11;20.10;74.60
10903;DHT22;5504;47.312;11.060;2023-05-27T06:30:37;20.00;75.90
10903;DHT22;5504;47.312;11.060;2023-05-27T06:33:03;20.30;77.60
10903;DHT22;5504;47.312;11.060;2023-05-27T06:35:29;20.10;74.30
10903;DHT22;5504;47.312;11.060;2023-05-27T06:37:55;20.00;74.60
10903;DHT22;5504;47.312;11.060;2023-05-27T06:40:20;20.30;76.60
10903;DHT22;5504;47.312;11.060;2023-05-27T06:42:46;20.30;75.50
10903;DHT22;5504;47.312;11.060;2023-05-27T06:45:12;20.50;75.10
10903;DHT22;5504;47.312;11.060;2023-05-27T06:47:38;21.10;75.90
10903;DHT22;5504;47.312;11.060;2023-05-27T06:50:05;20.10;72.70
10903;DHT22;5504;47.312;11.060;2023-05-27T06:52:31;20.20;73.30
10903;DHT22;5504;47.312;11.060;2023-05-27T06:54:56;21.10;76.70
10903;DHT22;5504;47.312;11.060;2023-05-27T06:57:22;21.50;72.60
10903;DHT22;5504;47.312;11.060;2023-05-27T06:59:48;22.40;71.70
10903;DHT22;5504;47.312;11.060;2023-05-27T07:02:13;22.20;69.10
10903;DHT22;5504;47.312;11.060;2023-05-27T07:04:39;22.50;70.40
10903;DHT22;5504;47.312;11.060;2023-05-27T07:07:05;22.30;65.80
10903;DHT22;5504;47.312;11.060;2023-05-27T07:09:31;21.60;66.80
10903;DHT22;5504;47.312;11.060;2023-05-27T07:11:57;21.90;69.50
10903;DHT22;5504;47.312;11.060;2023-05-27T07:14:22;22.20;68.30
10903;DHT22;5504;47.312;11.060;2023-05-27T07:16:48;22.30;69.40
10903;DHT22;5504;47.312;11.060;2023-05-27T07:19:14;22.70;67.80
10903;DHT22;5504;47.312;11.060;2023-05-27T07:21:40;23.10;69.60
10903;DHT22;5504;47.312;11.060;2023-05-27T07:24:05;23.70;69.00
10903;DHT22;5504;47.312;11.060;2023-05-27T07:26:31;23.30;63.40
10903;DHT22;5504;47.312;11.060;2023-05-27T07:28:59;21.70;67.20
10903;DHT22;5504;47.312;11.060;2023-05-27T07:31:26;22.00;66.90
10903;DHT22;5504;47.312;11.060;2023-05-27T07:33:53;22.50;66.70
10903;DHT22;5504;47.312;11.060;2023-05-27T07:36:18;21.00;68.40
10903;DHT22;5504;47.312;11.060;2023-05-27T07:38:44;22.00;68.40
10903;DHT22;5504;47.312;11.060;2023-05-27T07:41:13;22.70;68.60
10903;DHT22;5504;47.312;11.060;2023-05-27T07:43:39;22.80;62.90
10903;DHT22;5504;47.312;11.060;2023-05-27T07:46:05;22.70;64.50
10903;DHT22;5504;47.312;11.060;2023-05-27T07:48:31;22.20;67.30
10903;DHT22;5504;47.312;11.060;2023-05-27T07:50:56;23.30;70.40
10903;DHT22;5504;47.312;11.060;2023-05-27T07:53:22;23.80;67.60
10903;DHT22;5504;47.312;11.060;2023-05-27T07:55:48;24.10;64.80
10903;DHT22;5504;47.312;11.060;2023-05-27T07:58:14;23.40;60.10
10903;DHT22;5504;47.312;11.060;2023-05-27T08:00:40;23.00;60.90
10903;DHT22;5504;47.312;11.060;2023-05-27T08:03:05;23.70;62.20
10903;DHT22;5504;47.312;11.060;2023-05-27T08:05:32;24.70;62.30
10903;DHT22;5504;47.312;11.060;2023-05-27T08:07:58;24.50;60.00
10903;DHT22;5504;47.312;11.060;2023-05-27T08:10:24;24.10;57.80
10903;DHT22;5504;47.312;11.060;2023-05-27T08:12:50;24.20;59.70
10903;DHT22;5504;47.312;11.060;2023-05-27T08:15:15;24.70;60.40
10903;DHT22;5504;47.312;11.060;2023-05-27T08:17:41;25.60;59.70
10903;DHT22;5504;47.312;11.060;2023-05-27T08:20:09;24.80;58.00
10903;DHT22;5504;47.312;11.060;2023-05-27T08:22:36;24.10;60.50
10903;DHT22;5504;47.312;11.060;2023-05-27T08:25:02;24.20;59.90
10903;DHT22;5504;47.312;11.060;2023-05-27T08:27:49;25.00;60.90
10903;DHT22;5504;47.312;11.060;2023-05-27T08:30:17;25.80;59.40
10903;DHT22;5504;47.312;11.060;2023-05-27T08:32:43;26.30;59.10
10903;DHT22;5504;47.312;11.060;2023-05-27T08:35:10;25.80;53.90
10903;DHT22;5504;47.312;11.060;2023-05-27T08:37:39;25.10;54.70
10903;DHT22;5504;47.312;11.060;2023-05-27T08:40:09;25.40;54.30
10903;DHT22;5504;47.312;11.060;2023-05-27T08:42:36;24.90;55.50
10903;DHT22;5504;47.312;11.060;2023-05-27T08:45:02;24.70;60.20
10903;DHT22;5504;47.312;11.060;2023-05-27T08:47:30;25.50;56.60
10903;DHT22;5504;47.312;11.060;2023-05-27T08:49:57;24.40;55.90
10903;DHT22;5504;47.312;11.060;2023-05-27T08:52:29;25.60;63.50
10903;DHT22;5504;47.312;11.060;2023-05-27T08:54:59;25.00;56.10
10903;DHT22;5504;47.312;11.060;2023-05-27T08:57:29;26.00;56.20
10903;DHT22;5504;47.312;11.060;2023-05-27T08:59:56;27.20;57.60
10903;DHT22;5504;47.312;11.060;2023-05-27T09:02:22;25.60;54.20
10903;DHT22;5504;47.312;11.060;2023-05-27T09:04:49;25.30;54.50
10903;DHT22;5504;47.312;11.060;2023-05-27T09:07:15;25.50;56.50
10903;DHT22;5504;47.312;11.060;2023-05-27T09:09:42;25.50;56.70
10903;DHT22;5504;47.312;11.060;2023-05-27T09:12:07;26.00;56.00
10903;DHT22;5504;47.312;11.060;2023-05-27T09:14:36;26.60;54.50
10903;DHT22;5504;47.312;11.060;2023-05-27T09:17:07;27.30;52.90
10903;DHT22;5504;47.312;11.060;2023-05-27T09:19:34;27.80;55.50
10903;DHT22;5504;47.312;11.060;2023-05-27T09:22:00;27.50;53.60
10903;DHT22;5504;47.312;11.060;2023-05-27T09:24:26;27.70;52.00
10903;DHT22;5504;47.312;11.060;2023-05-27T09:26:52;28.00;51.10
10903;DHT22;5504;47.312;11.060;2023-05-27T09:29:25;28.50;53.70
10903;DHT22;5504;47.312;11.060;2023-05-27T09:31:54;28.70;53.30
10903;DHT22;5504;47.312;11.060;2023-05-27T09:34:21;28.50;51.40
10903;DHT22;5504;47.312;11.060;2023-05-27T09:36:49;29.00;52.10
10903;DHT22;5504;47.312;11.060;2023-05-27T09:39:17;28.90;51.10
10903;DHT22;5504;47.312;11.060;2023-05-27T09:41:50;27.80;49.50
10903;DHT22;5504;47.312;11.060;2023-05-27T09:44:18;28.50;51.10
10903;DHT22;5504;47.312;11.060;2023-05-27T09:46:44;28.50;53.20
10903;DHT22;5504;47.312;11.060;2023-05-27T09:49:14;28.40;51.90
10903;DHT22;5504;47.312;11.060;2023-05-27T09:51:41;27.70;52.80
10903;DHT22;5504;47.312;11.060;2023-05-27T09:54:07;28.30;54.40
10903;DHT22;5504;47.312;11.060;2023-05-27T09:56:35;27.90;50.00
10903;DHT22;5504;47.312;11.060;2023-05-27T09:59:01;27.60;55.20
10903;DHT22;5504;47.312;11.060;2023-05-27T10:01:28;28.30;55.50
10903;DHT22;5504;47.312;11.060;2023-05-27T10:03:55;28.90;52.80
10903;DHT22;5504;47.312;11.060;2023-05-27T10:06:22;29.40;51.40
10903;DHT22;5504;47.312;11.060;2023-05-27T10:08:55;29.30;54.10
10903;DHT22;5504;47.312;11.060;2023-05-27T10:11:22;29.60;51.90
10903;DHT22;5504;47.312;11.060;2023-05-27T10:13:48;27.40;48.70
10903;DHT22;5504;47.312;11.060;2023-05-27T10:16:21;28.20;52.80
10903;DHT22;5504;47.312;11.060;2023-05-27T10:18:47;29.10;52.90
10903;DHT22;5504;47.312;11.060;2023-05-27T10:21:22;29.30;50.30
10903;DHT22;5504;47.312;11.060;2023-05-27T10:23:57;27.90;47.00
10903;DHT22;5504;47.312;11.060;2023-05-27T10:26:35;27.30;47.30
10903;DHT22;5504;47.312;11.060;2023-05-27T10:29:09;27.50;45.30
10903;DHT22;5504;47.312;11.060;2023-05-27T10:31:35;27.50;49.10
10903;DHT22;5504;47.312;11.060;2023-05-27T10:34:05;28.40;50.30
10903;DHT22;5504;47.312;11.060;2023-05-27T10:36:32;29.00;51.80
10903;DHT22;5504;47.312;11.060;2023-05-27T10:39:00;29.20;49.00
10903;DHT22;5504;47.312;11.060;2023-05-27T10:41:26;29.10;49.00
10903;DHT22;5504;47.312;11.060;2023-05-27T10:43:59;29.60;49.70
10903;DHT22;5504;47.312;11.060;2023-05-27T10:46:26;29.40;44.20
10903;DHT22;5504;47.312;11.060;2023-05-27T10:48:51;29.70;47.80
10903;DHT22;5504;47.312;11.060;2023-05-27T10:51:17;29.70;44.50
10903;DHT22;5504;47.312;11.060;2023-05-27T10:53:43;29.50;45.50
10903;DHT22;5504;47.312;11.060;2023-05-27T10:56:09;29.30;44.80
10903;DHT22;5504;47.312;11.060;2023-05-27T10:58:36;28.30;45.80
10903;DHT22;5504;47.312;11.060;2023-05-27T11:01:13;28.70;43.50
10903;DHT22;5504;47.312;11.060;2023-05-27T11:03:44;29.10;44.20
10903;DHT22;5504;47.312;11.060;2023-05-27T11:06:11;28.10;42.50
10903;DHT22;5504;47.312;11.060;2023-05-27T11:08:37;27.90;45.20
10903;DHT22;5504;47.312;11.060;2023-05-27T11:11:07;28.20;45.20
10903;DHT22;5504;47.312;11.060;2023-05-27T11:13:39;28.70;44.60
10903;DHT22;5504;47.312;11.060;2023-05-27T11:16:06;29.10;44.30
10903;DHT22;5504;47.312;11.060;2023-05-27T11:21:01;27.80;40.50
10903;DHT22;5504;47.312;11.060;2023-05-27T11:26:10;29.30;41.90
10903;DHT22;5504;47.312;11.060;2023-05-27T11:28:36;28.20;42.20
10903;DHT22;5504;47.312;11.060;2023-05-27T11:31:04;28.10;43.60
10903;DHT22;5504;47.312;11.060;2023-05-27T11:33:33;28.90;46.40
10903;DHT22;5504;47.312;11.060;2023-05-27T11:36:06;28.40;46.10
10903;DHT22;5504;47.312;11.060;2023-05-27T11:39:00;27.90;46.30
10903;DHT22;5504;47.312;11.060;2023-05-27T11:41:29;27.70;46.10
10903;DHT22;5504;47.312;11.060;2023-05-27T11:44:06;27.40;45.70
10903;DHT22;5504;47.312;11.060;2023-05-27T11:46:35;27.60;48.50
10903;DHT22;5504;47.312;11.060;2023-05-27T11:49:06;27.50;45.90
10903;DHT22;5504;47.312;11.060;2023-05-27T11:51:37;27.30;46.60
10903;DHT22;5504;47.312;11.060;2023-05-27T11:54:03;27.00;47.40
10903;DHT22;5504;47.312;11.060;2023-05-27T11:56:29;27.40;48.40
10903;DHT22;5504;47.312;11.060;2023-05-27T11:58:56;27.80;48.10
10903;DHT22;5504;47.312;11.060;2023-05-27T12:01:22;28.80;52.50
10903;DHT22;5504;47.312;11.060;2023-05-27T12:03:48;29.40;47.70
10903;DHT22;5504;47.312;11.060;2023-05-27T12:06:13;29.60;46.50
10903;DHT22;5504;47.312;11.060;2023-05-27T12:08:41;28.70;45.90
10903;DHT22;5504;47.312;11.060;2023-05-27T12:11:06;28.00;46.80
10903;DHT22;5504;47.312;11.060;2023-05-27T12:13:32;28.60;45.70
10903;DHT22;5504;47.312;11.060;2023-05-27T12:15:58;28.40;43.10
10903;DHT22;5504;47.312;11.060;2023-05-27T12:18:24;28.30;43.90
10903;DHT22;5504;47.312;11.060;2023-05-27T12:20:50;29.20;43.60
10903;DHT22;5504;47.312;11.060;2023-05-27T12:23:16;29.60;43.80
10903;DHT22;5504;47.312;11.060;2023-05-27T12:25:42;28.30;40.40
10903;DHT22;5504;47.312;11.060;2023-05-27T12:28:08;28.30;39.40
10903;DHT22;5504;47.312;11.060;2023-05-27T12:30:38;28.90;42.00
10903;DHT22;5504;47.312;11.060;2023-05-27T12:33:04;28.20;41.00
10903;DHT22;5504;47.312;11.060;2023-05-27T12:35:31;29.40;43.90
10903;DHT22;5504;47.312;11.060;2023-05-27T12:37:57;29.10;42.60
10903;DHT22;5504;47.312;11.060;2023-05-27T12:40:24;29.20;43.70
10903;DHT22;5504;47.312;11.060;2023-05-27T12:42:50;29.80;45.60
10903;DHT22;5504;47.312;11.060;2023-05-27T12:45:15;28.70;40.80
10903;DHT22;5504;47.312;11.060;2023-05-27T12:47:41;28.60;45.50
10903;DHT22;5504;47.312;11.060;2023-05-27T12:50:07;28.40;45.00
10903;DHT22;5504;47.312;11.060;2023-05-27T12:52:33;27.80;46.70
10903;DHT22;5504;47.312;11.060;2023-05-27T12:54:59;27.70;47.30
10903;DHT22;5504;47.312;11.060;2023-05-27T12:57:25;27.20;46.30
10903;DHT22;5504;47.312;11.060;2023-05-27T12:59:51;27.30;48.20
10903;DHT22;5504;47.312;11.060;2023-05-27T13:02:17;27.50;47.90
10903;DHT22;5504;47.312;11.060;2023-05-27T13:04:43;27.00;46.90
10903;DHT22;5504;47.312;11.060;2023-05-27T13:07:10;27.00;47.50
10903;DHT22;5504;47.312;11.060;2023-05-27T13:09:37;27.00;47.20
10903;DHT22;5504;47.312;11.060;2023-05-27T13:12:03;27.00;48.10
10903;DHT22;5504;47.312;11.060;2023-05-27T13:14:29;26.80;47.30
10903;DHT22;5504;47.312;11.060;2023-05-27T13:16:55;26.70;48.10
10903;DHT22;5504;47.312;11.060;2023-05-27T13:19:22;26.50;48.60
10903;DHT22;5504;47.312;11.060;2023-05-27T13:21:48;26.50;48.40
10903;DHT22;5504;47.312;11.060;2023-05-27T13:24:14;26.20;46.80
10903;DHT22;5504;47.312;11.060;2023-05-27T13:26:40;26.40;49.40
10903;DHT22;5504;47.312;11.060;2023-05-27T13:29:06;26.60;48.60
10903;DHT22;5504;47.312;11.060;2023-05-27T13:31:31;26.30;47.70
10903;DHT22;5504;47.312;11.060;2023-05-27T13:33:57;26.10;48.90
10903;DHT22;5504;47.312;11.060;2023-05-27T13:36:23;26.20;48.70
10903;DHT22;5504;47.312;11.060;2023-05-27T13:38:49;26.10;48.80
10903;DHT22;5504;47.312;11.060;2023-05-27T13:41:14;26.10;49.40
10903;DHT22;5504;47.312;11.060;2023-05-27T13:43:40;25.80;48.70
10903;DHT22;5504;47.312;11.060;2023-05-27T13:46:06;26.00;49.80
10903;DHT22;5504;47.312;11.060;2023-05-27T13:48:31;26.50;49.20
10903;DHT22;5504;47.312;11.060;2023-05-27T13:50:57;26.80;49.50
10903;DHT22;5504;47.312;11.060;2023-05-27T13:53:24;26.90;47.80
10903;DHT22;5504;47.312;11.060;2023-05-27T13:55:50;27.10;49.30
10903;DHT22;5504;47.312;11.060;2023-05-27T13:58:16;27.40;47.20
10903;DHT22;5504;47.312;11.060;2023-05-27T14:00:43;27.70;47.60
10903;DHT22;5504;47.312;11.060;2023-05-27T14:03:09;27.70;48.80
10903;DHT22;5504;47.312;11.060;2023-05-27T14:05:35;27.10;46.80
10903;DHT22;5504;47.312;11.060;2023-05-27T14:08:02;26.50;48.30
10903;DHT22;5504;47.312;11.060;2023-05-27T14:10:31;26.60;49.40
10903;DHT22;5504;47.312;11.060;2023-05-27T14:12:56;26.60;48.80
10903;DHT22;5504;47.312;11.060;2023-05-27T14:15:22;26.70;50.00
10903;DHT22;5504;47.312;11.060;2023-05-27T14:17:48;26.80;48.20
10903;DHT22;5504;47.312;11.060;2023-05-27T14:20:13;26.90;48.50
10903;DHT22;5504;47.312;11.060;2023-05-27T14:22:39;27.30;47.40
10903;DHT22;5504;47.312;11.060;2023-05-27T14:25:08;27.30;48.00
10903;DHT22;5504;47.312;11.060;2023-05-27T14:27:34;27.20;48.20
10903;DHT22;5504;47.312;11.060;2023-05-27T14:30:00;27.40;48.00
10903;DHT22;5504;47.312;11.060;2023-05-27T14:32:26;27.50;48.80
10903;DHT22;5504;47.312;11.060;2023-05-27T14:34:51;27.70;48.70
10903;DHT22;5504;47.312;11.060;2023-05-27T14:37:17;27.20;47.10
10903;DHT22;5504;47.312;11.060;2023-05-27T14:39:43;27.20;48.00
10903;DHT22;5504;47.312;11.060;2023-05-27T14:42:09;27.30;48.70
10903;DHT22;5504;47.312;11.060;2023-05-27T14:44:35;27.10;48.00
10903;DHT22;5504;47.312;11.060;2023-05-27T14:47:04;26.70;47.50
10903;DHT22;5504;47.312;11.060;2023-05-27T14:49:30;26.50;48.50
10903;DHT22;5504;47.312;11.060;2023-05-27T14:51:56;26.50;47.30
10903;DHT22;5504;47.312;11.060;2023-05-27T14:54:22;26.60;48.20
10903;DHT22;5504;47.312;11.060;2023-05-27T14:56:48;26.60;49.60
10903;DHT22;5504;47.312;11.060;2023-05-27T14:59:13;26.70;47.70
10903;DHT22;5504;47.312;11.060;2023-05-27T15:01:39;26.70;48.80
10903;DHT22;5504;47.312;11.060;2023-05-27T15:04:05;26.60;48.00
10903;DHT22;5504;47.312;11.060;2023-05-27T15:06:31;26.50;47.80
10903;DHT22;5504;47.312;11.060;2023-05-27T15:08:57;26.20;48.70
10903;DHT22;5504;47.312;11.060;2023-05-27T15:11:23;26.40;50.30
10903;DHT22;5504;47.312;11.060;2023-05-27T15:13:48;26.50;48.30
10903;DHT22;5504;47.312;11.060;2023-05-27T15:16:14;26.70;50.20
10903;DHT22;5504;47.312;11.060;2023-05-27T15:18:40;26.70;48.70
10903;DHT22;5504;47.312;11.060;2023-05-27T15:21:06;26.90;47.10
10903;DHT22;5504;47.312;11.060;2023-05-27T15:23:33;27.10;48.80
10903;DHT22;5504;47.312;11.060;2023-05-27T15:25:58;26.90;48.70
10903;DHT22;5504;47.312;11.060;2023-05-27T15:28:24;26.70;46.80
10903;DHT22;5504;47.312;11.060;2023-05-27T15:30:50;26.50;46.40
10903;DHT22;5504;47.312;11.060;2023-05-27T15:33:17;26.80;49.30
10903;DHT22;5504;47.312;11.060;2023-05-27T15:35:43;27.00;49.40